KHST/HST METAR and TAF weather

Enter ICAO airport designator
Station Type Date Time Source
KHST METAR 2021/05/12 23:57 UTC NOAA

KHST 122357Z AUTO 00000KT 10SM -RA FEW085 28/23 A2999 RMK AO2 RAB57 SLP159


Station Type Date Time Source
KHST Decoded METAR 2021/05/12 23:57 UTC NOAA

Homestead Air Force Base, FL, United States (KHST) 25-29N 080-23W
May 12, 2021 - 07:57 PM EDT / 2021.05.12 2357 UTC
Wind: Calm:0
Visibility: 10 mile(s):0
Sky conditions: mostly clear
Weather: light rain
Temperature: 82 F (28 C)
Dew Point: 73 F (23 C)
Relative Humidity: 74%
Pressure (altimeter): 29.99 in. Hg (1015 hPa)
ob: KHST 122357Z AUTO 00000KT 10SM -RA FEW085 28/23 A2999 RMK AO2 RAB57 SLP159
cycle: 0

Station Type Date Time Source
KHST TAF 2021/05/12 23:23 UTC NOAA

TAF
AMD KHST 122320Z 1223/1401 15010KT 9999 SCT030 BKN080 QNH2998INS
TEMPO 1307/1312 32002KT 3200 BR FEW008 BKN012 OVC025
BECMG 1314/1315 18008KT 9999 NSW SCT035 QNH3004INS
BECMG 1323/1324 35002KT 9999 SCT025 BKN040 QNH3004INS TX33/1319Z TN24/1310Z

Example: see airport list